createdAt,value
2017-07-04T00:00:23.278Z,64.7
2017-07-04T00:01:22.356Z,64.6
2017-07-04T00:03:21.461Z,64.8
2017-07-04T00:04:20.435Z,64.8
2017-07-04T00:06:19.165Z,64.9
2017-07-04T00:07:18.366Z,64.9
2017-07-04T00:08:17.955Z,65
2017-07-04T00:09:17.556Z,65.1
2017-07-04T00:10:16.641Z,64.6
2017-07-04T00:11:15.982Z,64.5
2017-07-04T00:12:15.323Z,64.7
2017-07-04T00:13:14.657Z,64.8
2017-07-04T00:14:13.881Z,65
2017-07-04T00:15:13.349Z,64.9
2017-07-04T00:15:43.763Z,64.9
2017-07-04T00:16:13.923Z,65.6
2017-07-04T00:16:44.199Z,65.6
2017-07-04T00:17:14.737Z,65.4
2017-07-04T00:17:45.271Z,65.4
2017-07-04T00:18:15.554Z,64.8
2017-07-04T00:19:10.617Z,65.1
2017-07-04T00:20:09.950Z,65.2
2017-07-04T00:21:09.032Z,65.3
2017-07-04T00:22:08.623Z,65.2
2017-07-04T00:23:07.717Z,65.3
2017-07-04T00:24:06.938Z,65.5
2017-07-04T00:25:06.657Z,65.3
2017-07-04T00:26:06.003Z,65.3
2017-07-04T00:27:05.354Z,65.6
2017-07-04T00:28:04.709Z,65.6
2017-07-04T00:29:03.672Z,66
2017-07-04T00:30:03.012Z,65.8
2017-07-04T00:31:02.345Z,65.6
2017-07-04T00:32:01.810Z,66
2017-07-04T00:33:00.901Z,66.3
2017-07-04T00:34:00.488Z,66.2
2017-07-04T00:34:59.953Z,66.3
2017-07-04T00:35:59.036Z,66.2
2017-07-04T00:36:58.623Z,66
2017-07-04T00:37:58.167Z,66.3
2017-07-04T00:38:57.384Z,66.2
2017-07-04T00:39:56.101Z,66.6
2017-07-04T00:40:55.697Z,67.3
2017-07-04T00:41:54.907Z,67.2
2017-07-04T00:42:54.502Z,66.8
2017-07-04T00:43:53.719Z,66.8
2017-07-04T00:44:53.066Z,66.8
2017-07-04T00:45:52.035Z,66.9
2017-07-04T00:46:51.755Z,66.9
2017-07-04T00:47:51.083Z,66.4
2017-07-04T00:48:50.296Z,66.5
2017-07-04T00:49:49.639Z,66.5
2017-07-04T00:50:48.862Z,66.5
2017-07-04T00:51:48.216Z,66.3
2017-07-04T00:52:18.613Z,66.3
2017-07-04T00:52:49.140Z,66.2
2017-07-04T00:53:19.721Z,66.2
2017-07-04T00:54:46.105Z,65.9
2017-07-04T00:55:45.445Z,66.2
2017-07-04T00:56:44.786Z,66
2017-07-04T00:57:44.009Z,65.9
2017-07-04T00:58:43.725Z,66.1
2017-07-04T00:59:42.702Z,66
2017-07-04T01:00:41.929Z,66.2
2017-07-04T01:01:41.407Z,66.1
2017-07-04T01:02:40.997Z,65.8
2017-07-04T01:03:40.071Z,65.6
2017-07-04T01:05:38.926Z,65.6
2017-07-04T01:06:38.150Z,65.7
2017-07-04T01:08:36.748Z,65.9
2017-07-04T01:09:35.949Z,66.1
2017-07-04T01:10:35.292Z,66.4
2017-07-04T01:11:34.643Z,66.6
2017-07-04T01:12:05.317Z,66.6
2017-07-04T01:13:33.342Z,67.1
2017-07-04T01:14:32.496Z,67.2
2017-07-04T01:15:32.085Z,67.4
2017-07-04T01:17:30.441Z,67.7
2017-07-04T01:18:29.787Z,68
2017-07-04T01:19:29.378Z,68.2
2017-07-04T01:20:28.842Z,68.4
2017-07-04T01:21:27.942Z,68.5
2017-07-04T01:21:58.711Z,68.5
2017-07-04T01:22:28.982Z,68.6
2017-07-04T01:22:59.250Z,68.6
2017-07-04T01:23:30.026Z,68.8
2017-07-04T01:24:00.545Z,68.8
2017-07-04T01:25:25.303Z,68.9
2017-07-04T01:26:24.390Z,68.9
2017-07-04T01:27:23.982Z,69
2017-07-04T01:28:23.325Z,69.2
2017-07-04T01:29:22.162Z,69.3
2017-07-04T01:30:21.509Z,69.6
2017-07-04T01:31:20.980Z,69.8
2017-07-04T01:32:20.397Z,69.9
2017-07-04T01:33:19.743Z,70
2017-07-04T01:34:19.088Z,70.1
2017-07-04T01:35:18.053Z,70.2
2017-07-04T01:36:17.640Z,70.5
2017-07-04T01:37:16.846Z,70.9
2017-07-04T01:38:16.577Z,71.1
2017-07-04T01:39:15.798Z,71.2
2017-07-04T01:40:15.142Z,71.6
2017-07-04T01:41:14.357Z,71.7
2017-07-04T01:42:13.701Z,71.7
2017-07-04T01:43:12.906Z,71.9
2017-07-04T01:44:12.501Z,72.2
2017-07-04T01:45:11.370Z,72.4
2017-07-04T01:46:10.586Z,72.7
2017-07-04T01:47:10.303Z,73
2017-07-04T01:48:09.630Z,73.4
2017-07-04T01:49:08.671Z,73.6
2017-07-04T01:50:07.895Z,73.9
2017-07-04T01:51:07.107Z,74
2017-07-04T01:52:06.629Z,74.2
2017-07-04T01:53:05.725Z,74.4
2017-07-04T01:54:05.323Z,74.6
2017-07-04T01:55:04.544Z,74.8
2017-07-04T01:56:04.020Z,75.3
2017-07-04T01:57:03.224Z,75.6
2017-07-04T01:58:02.506Z,76.4
2017-07-04T01:59:01.729Z,77.5
2017-07-04T02:00:01.331Z,77.7
2017-07-04T02:01:00.428Z,77.7
2017-07-04T02:01:59.776Z,78.1
2017-07-04T02:02:59.362Z,78.4
2017-07-04T02:03:58.072Z,79
2017-07-04T02:05:57.191Z,80.3
2017-07-04T02:06:56.530Z,80.8
2017-07-04T02:07:55.496Z,80.8
2017-07-04T02:08:54.714Z,81.2
2017-07-04T02:09:54.307Z,81.4
2017-07-04T02:10:53.774Z,81.6
2017-07-04T02:11:52.501Z,81.8
2017-07-04T02:12:52.222Z,81.9
2017-07-04T02:13:51.189Z,82.3
2017-07-04T02:14:50.396Z,82.6
2017-07-04T02:15:50.111Z,82.8
2017-07-04T02:16:20.396Z,82.8
2017-07-04T02:16:50.925Z,82.6
2017-07-04T02:17:48.494Z,83
2017-07-04T02:18:48.080Z,83.5
2017-07-04T02:19:47.306Z,83.3
2017-07-04T02:20:46.526Z,83.6
2017-07-04T02:21:45.860Z,83.5
2017-07-04T02:22:45.079Z,83.5
2017-07-04T02:23:44.306Z,83.4
2017-07-04T02:24:43.519Z,83.8
2017-07-04T02:25:43.000Z,83.7
2017-07-04T02:26:42.095Z,85.3
2017-07-04T02:28:40.691Z,83.4
2017-07-04T02:29:39.854Z,83.5
2017-07-04T02:30:39.561Z,83.6
2017-07-04T02:31:38.521Z,84
2017-07-04T02:32:37.867Z,83.4
2017-07-04T02:33:37.197Z,83.5
2017-07-04T02:34:36.912Z,83.8
2017-07-04T02:35:36.003Z,83.4
2017-07-04T02:36:35.461Z,83.2
2017-07-04T02:37:34.409Z,83.3
2017-07-04T02:38:33.493Z,83.6
2017-07-04T02:39:32.959Z,83.5
2017-07-04T02:40:32.428Z,83.6
2017-07-04T02:41:31.389Z,84
2017-07-04T02:42:30.979Z,83.8
2017-07-04T02:43:29.947Z,84
2017-07-04T02:44:29.535Z,84.2
2017-07-04T02:45:29.008Z,83.5
2017-07-04T02:46:28.102Z,83.6
2017-07-04T02:47:27.444Z,83.7
2017-07-04T02:48:26.793Z,83.8
2017-07-04T02:49:25.761Z,83.7
2017-07-04T02:50:25.356Z,83.9
2017-07-04T02:51:24.326Z,83.9
2017-07-04T02:52:23.926Z,83.9
2017-07-04T02:53:23.278Z,84.3
2017-07-04T02:54:22.323Z,84
2017-07-04T02:55:21.546Z,84
2017-07-04T02:56:21.019Z,84.1
2017-07-04T02:57:20.110Z,84.3
2017-07-04T02:58:19.332Z,83.9
2017-07-04T02:59:18.678Z,83.9
2017-07-04T03:00:18.146Z,83.8
2017-07-04T03:01:17.242Z,83.8
2017-07-04T03:02:16.457Z,84
2017-07-04T03:03:15.807Z,84.1
2017-07-04T03:04:15.156Z,84.1
2017-07-04T03:05:14.500Z,84
2017-07-04T03:06:13.978Z,84
2017-07-04T03:07:13.127Z,84.1
2017-07-04T03:08:12.287Z,84.4
2017-07-04T03:09:11.390Z,84.3
2017-07-04T03:10:10.740Z,83.6
2017-07-04T03:11:10.087Z,83.7
2017-07-04T03:12:09.443Z,83.8
2017-07-04T03:13:08.917Z,83.9
2017-07-04T03:14:08.017Z,83.9
2017-07-04T03:15:07.369Z,83.8
2017-07-04T03:15:37.629Z,83.8
2017-07-04T03:17:05.991Z,83.1
2017-07-04T03:18:05.080Z,83.4
2017-07-04T03:19:04.566Z,83.4
2017-07-04T03:20:03.542Z,83.6
2017-07-04T03:21:03.386Z,83.5
2017-07-04T03:22:02.487Z,83.6
2017-07-04T03:23:01.715Z,83.4
2017-07-04T03:24:00.858Z,83.5
2017-07-04T03:25:00.103Z,83.2
2017-07-04T03:25:59.199Z,83
2017-07-04T03:26:29.601Z,83
2017-07-04T03:26:59.759Z,83.2
2017-07-04T03:27:58.340Z,83.5
2017-07-04T03:28:57.066Z,83.4
2017-07-04T03:29:56.409Z,83.2
2017-07-04T03:30:55.885Z,83
2017-07-04T03:31:55.360Z,83.2
2017-07-04T03:32:54.459Z,83
2017-07-04T03:33:53.676Z,83
2017-07-04T03:34:53.228Z,82.7
2017-07-04T03:35:52.575Z,82.8
2017-07-04T03:36:51.797Z,83.3
2017-07-04T03:37:50.885Z,82.7
2017-07-04T03:38:50.490Z,82.7
2017-07-04T03:39:49.718Z,82.5
2017-07-04T03:40:48.446Z,82.5
2017-07-04T03:41:47.998Z,82.8
2017-07-04T03:42:47.348Z,82.6
2017-07-04T03:44:45.706Z,82.8
2017-07-04T03:46:44.184Z,82.4
2017-07-04T03:47:43.784Z,82.4
2017-07-04T03:48:43.136Z,82.1
2017-07-04T03:49:41.985Z,82.1
2017-07-04T03:50:41.576Z,82.2
2017-07-04T03:51:40.677Z,82.2
2017-07-04T03:52:39.891Z,82.2
2017-07-04T03:53:39.108Z,81.6
2017-07-04T03:54:38.457Z,81.7
2017-07-04T03:56:37.331Z,81.7
2017-07-04T03:58:35.944Z,81.9
2017-07-04T03:59:35.424Z,82.1
2017-07-04T04:00:34.652Z,82
2017-07-04T04:01:33.362Z,81.9
2017-07-04T04:02:32.829Z,81.8
2017-07-04T04:03:32.308Z,81.8
2017-07-04T04:04:31.418Z,81.9
2017-07-04T04:05:30.535Z,81.8
2017-07-04T04:06:30.016Z,81.8
2017-07-04T04:07:29.239Z,81.6
2017-07-04T04:08:28.338Z,81.7
2017-07-04T04:09:27.934Z,81.8
2017-07-04T04:10:27.034Z,81.8
2017-07-04T04:11:26.765Z,81.6
2017-07-04T04:12:25.867Z,81.6
2017-07-04T04:13:24.979Z,81.8
2017-07-04T04:14:24.459Z,82
2017-07-04T04:15:23.689Z,81.8
2017-07-04T04:16:22.657Z,81.6
2017-07-04T04:17:22.264Z,81.6
2017-07-04T04:18:21.491Z,81.1
2017-07-04T04:19:20.591Z,81.2
2017-07-04T04:20:20.059Z,81.4
2017-07-04T04:20:50.461Z,81.4
2017-07-04T04:21:21.009Z,81.1
2017-07-04T04:22:18.601Z,81.2
2017-07-04T04:23:17.701Z,81.4
2017-07-04T04:24:16.889Z,81.3
2017-07-04T04:25:16.497Z,81.2
2017-07-04T04:26:15.591Z,81.3
2017-07-04T04:27:15.062Z,81.4
2017-07-04T04:28:14.153Z,81.2
2017-07-04T04:29:13.872Z,80.8
2017-07-04T04:30:12.850Z,81
2017-07-04T04:31:11.813Z,81.1
2017-07-04T04:32:11.406Z,81.2
2017-07-04T04:33:10.504Z,81.3
2017-07-04T04:35:09.500Z,81.3
2017-07-04T04:36:08.714Z,81.2
2017-07-04T04:37:08.062Z,81.2
2017-07-04T04:38:07.279Z,80.9
2017-07-04T04:39:06.237Z,80.6
2017-07-04T04:40:05.582Z,80.5
2017-07-04T04:41:04.803Z,80.5
2017-07-04T04:42:04.286Z,80.6
2017-07-04T04:43:03.251Z,80.2
2017-07-04T04:44:02.609Z,80.1
2017-07-04T04:45:02.208Z,80.1
2017-07-04T04:46:01.418Z,80.3
2017-07-04T04:47:00.636Z,80.3
2017-07-04T04:47:59.978Z,80.2
2017-07-04T04:48:59.067Z,80
2017-07-04T04:49:58.307Z,80.1
2017-07-04T04:50:57.534Z,80
2017-07-04T04:51:57.140Z,79.9
2017-07-04T04:52:56.237Z,79.6
2017-07-04T04:53:26.892Z,79.6
2017-07-04T04:53:57.553Z,79.9
2017-07-04T04:54:55.134Z,80.2
2017-07-04T04:55:54.117Z,80
2017-07-04T04:56:53.225Z,80
2017-07-04T04:57:52.570Z,79.9
2017-07-04T04:58:52.297Z,79.8
2017-07-04T04:59:51.134Z,79.7
2017-07-04T05:00:50.745Z,79.8
2017-07-04T05:01:21.277Z,79.8
2017-07-04T05:01:51.672Z,79.9
2017-07-04T05:02:22.079Z,79.9
2017-07-04T05:02:52.371Z,79.8
2017-07-04T05:03:48.575Z,79.7
2017-07-04T05:04:47.790Z,79.5
2017-07-04T05:06:46.285Z,79.9
2017-07-04T05:07:45.370Z,79.9
2017-07-04T05:08:44.964Z,79.8
2017-07-04T05:09:44.447Z,79.9
2017-07-04T05:10:43.303Z,79.7
2017-07-04T05:11:42.906Z,79.6
2017-07-04T05:12:41.748Z,79.6
2017-07-04T05:13:41.470Z,79.7
2017-07-04T05:14:12.129Z,79.7
2017-07-04T05:14:42.287Z,79.7
2017-07-04T05:15:12.704Z,79.7
2017-07-04T05:15:43.238Z,79.4
2017-07-04T05:16:39.450Z,79.4
2017-07-04T05:17:38.684Z,79.7
2017-07-04T05:18:37.705Z,79.4
2017-07-04T05:19:37.209Z,79.3
2017-07-04T05:20:36.183Z,79.3
2017-07-04T05:21:35.598Z,79.1
2017-07-04T05:22:34.702Z,79.4
2017-07-04T05:23:33.927Z,79.5
2017-07-04T05:24:33.405Z,79.5
2017-07-04T05:25:32.623Z,79.6
2017-07-04T05:26:32.086Z,79.8
2017-07-04T05:27:31.429Z,79.5
2017-07-04T05:28:30.531Z,79
2017-07-04T05:29:29.887Z,78.9
2017-07-04T05:30:29.243Z,78.9
2017-07-04T05:31:28.337Z,79.2
2017-07-04T05:32:28.076Z,79
2017-07-04T05:32:58.362Z,79
2017-07-04T05:33:28.652Z,79
2017-07-04T05:33:59.309Z,79
2017-07-04T05:35:25.711Z,79.2
2017-07-04T05:36:24.803Z,79.5
2017-07-04T05:38:23.533Z,78.3
2017-07-04T05:39:22.621Z,78
2017-07-04T05:40:21.981Z,78.4
2017-07-04T05:41:21.576Z,78.4
2017-07-04T05:42:20.798Z,78.9
2017-07-04T05:43:20.146Z,78.7
2017-07-04T05:44:19.156Z,78.9
2017-07-04T05:45:18.636Z,78.4
2017-07-04T05:46:17.849Z,78.7
2017-07-04T05:47:17.212Z,78.4
2017-07-04T05:48:16.302Z,78.4
2017-07-04T05:49:15.527Z,77.7
2017-07-04T05:50:14.883Z,77.6
2017-07-04T05:51:14.490Z,77.3
2017-07-04T05:52:13.545Z,77.6
2017-07-04T05:53:12.901Z,77.4
2017-07-04T05:54:12.137Z,77.5
2017-07-04T05:55:11.500Z,77.7
2017-07-04T05:56:10.793Z,77.4
2017-07-04T05:57:10.019Z,77.7
2017-07-04T05:58:09.190Z,77.6
2017-07-04T05:59:08.914Z,78.1
2017-07-04T06:00:08.142Z,77.3
2017-07-04T06:01:07.241Z,77.4
2017-07-04T06:02:06.849Z,77.5
2017-07-04T06:03:05.827Z,77.8
2017-07-04T06:04:05.314Z,77.4
2017-07-04T06:05:04.473Z,77.3
2017-07-04T06:06:03.506Z,77.8
2017-07-04T06:07:03.222Z,77.8
2017-07-04T06:08:02.434Z,77.7
2017-07-04T06:09:01.527Z,77.2
2017-07-04T06:10:00.786Z,77.3
2017-07-04T06:11:00.270Z,77.2
2017-07-04T06:11:59.245Z,76.9
2017-07-04T06:12:58.582Z,76.5
2017-07-04T06:13:57.930Z,76.8
2017-07-04T06:14:57.283Z,76.6
2017-07-04T06:15:56.898Z,76.9
2017-07-04T06:16:56.128Z,77.1
2017-07-04T06:17:55.489Z,77.1
2017-07-04T06:18:54.721Z,77.3
2017-07-04T06:19:54.066Z,77.4
2017-07-04T06:20:53.163Z,77.1
2017-07-04T06:21:52.383Z,77.5
2017-07-04T06:22:51.979Z,77.7
2017-07-04T06:23:50.951Z,77.3
2017-07-04T06:24:50.614Z,77.4
2017-07-04T06:25:49.708Z,77.8
2017-07-04T06:26:48.812Z,77.5
2017-07-04T06:27:48.527Z,77.3
2017-07-04T06:28:47.740Z,77
2017-07-04T06:29:46.842Z,77.1
2017-07-04T06:30:46.307Z,76.7
2017-07-04T06:31:45.772Z,77
2017-07-04T06:32:44.985Z,76.8
2017-07-04T06:33:44.070Z,77.2
2017-07-04T06:34:43.405Z,77.6
2017-07-04T06:35:42.633Z,77.6
2017-07-04T06:36:41.858Z,77
2017-07-04T06:37:41.076Z,76.9
2017-07-04T06:38:40.552Z,77.1
2017-07-04T06:39:40.032Z,76.8
2017-07-04T06:40:10.255Z,76.8
2017-07-04T06:40:40.788Z,76.5
2017-07-04T06:41:11.077Z,76.5
2017-07-04T06:41:41.484Z,75.7
2017-07-04T06:42:37.938Z,75.9
2017-07-04T06:43:36.923Z,76.1
2017-07-04T06:44:36.658Z,76.4
2017-07-04T06:45:35.756Z,75.9
2017-07-04T06:46:35.100Z,76.3
2017-07-04T06:47:34.773Z,75.6
2017-07-04T06:48:33.746Z,75.8
2017-07-04T06:49:32.973Z,76.2
2017-07-04T06:50:32.083Z,76.3
2017-07-04T06:51:31.810Z,76.2
2017-07-04T06:52:30.913Z,76
2017-07-04T06:53:30.250Z,76.1
2017-07-04T06:54:29.351Z,75.8
2017-07-04T06:55:28.951Z,75.1
2017-07-04T06:56:28.166Z,75.6
2017-07-04T06:57:27.640Z,75.4
2017-07-04T06:58:27.000Z,74.2
2017-07-04T06:59:26.099Z,73.8
2017-07-04T07:00:25.451Z,74
2017-07-04T07:01:24.669Z,73.5
2017-07-04T07:02:24.148Z,73.5
2017-07-04T07:03:23.501Z,73.1
2017-07-04T07:04:22.845Z,73.3
2017-07-04T07:05:22.068Z,73.8
2017-07-04T07:06:21.297Z,74.3
2017-07-04T07:07:20.778Z,74.3
2017-07-04T07:09:19.266Z,74.3
2017-07-04T07:10:18.361Z,74.5
2017-07-04T07:11:18.085Z,74.1
2017-07-04T07:12:17.499Z,74.4
2017-07-04T07:13:16.600Z,73.3
2017-07-04T07:14:16.210Z,73.5
2017-07-04T07:15:15.178Z,73.4
2017-07-04T07:16:14.536Z,73.7
2017-07-04T07:17:14.131Z,73.8
2017-07-04T07:18:13.219Z,72.9
2017-07-04T07:19:12.451Z,73
2017-07-04T07:20:11.671Z,72.7
2017-07-04T07:20:42.337Z,72.7
2017-07-04T07:21:12.745Z,72.4
2017-07-04T07:21:43.154Z,72.4
2017-07-04T07:22:13.572Z,71.5
2017-07-04T07:23:09.916Z,71.3
2017-07-04T07:24:09.071Z,72
2017-07-04T07:25:08.421Z,72.6
2017-07-04T07:26:07.835Z,72.2
2017-07-04T07:27:07.058Z,71.5
2017-07-04T07:28:06.537Z,71.1
2017-07-04T07:29:05.762Z,71.2
2017-07-04T07:30:05.234Z,70.7
2017-07-04T07:31:04.331Z,71
2017-07-04T07:32:03.808Z,70.6
2017-07-04T07:32:34.343Z,70.6
2017-07-04T07:33:04.880Z,70.7
2017-07-04T07:33:35.286Z,70.7
2017-07-04T07:35:01.941Z,70.6
2017-07-04T07:36:00.916Z,70.4
2017-07-04T07:37:00.646Z,70.4
2017-07-04T07:38:59.275Z,69.8
2017-07-04T07:39:58.246Z,69
2017-07-04T07:40:57.473Z,68.6
2017-07-04T07:41:57.202Z,68.6
2017-07-04T07:42:56.169Z,69.1
2017-07-04T07:43:55.778Z,69.2
2017-07-04T07:44:54.751Z,68.3
2017-07-04T07:45:54.352Z,68.3
2017-07-04T07:46:53.954Z,68
2017-07-04T07:47:53.057Z,67.8
2017-07-04T07:48:52.279Z,67.8
2017-07-04T07:49:51.623Z,67.8
2017-07-04T07:50:51.104Z,67.3
2017-07-04T07:51:50.328Z,67.6
2017-07-04T07:52:49.932Z,67.2
2017-07-04T07:53:20.457Z,67.2
2017-07-04T07:53:50.739Z,66.9
2017-07-04T07:54:48.453Z,67.1
2017-07-04T07:55:47.420Z,66.7
2017-07-04T07:56:46.894Z,66.4
2017-07-04T07:57:46.243Z,66.6
2017-07-04T07:58:45.594Z,66.5
2017-07-04T07:59:45.074Z,66.2
2017-07-04T08:00:44.553Z,66.4
2017-07-04T08:01:43.644Z,65.1
2017-07-04T08:02:43.106Z,65.1
2017-07-04T08:03:42.448Z,64.4
2017-07-04T08:04:41.416Z,64.6
2017-07-04T08:05:40.855Z,64.6
2017-07-04T08:06:40.456Z,63.9
2017-07-04T08:07:39.554Z,63.6
2017-07-04T08:08:39.151Z,64
2017-07-04T08:09:38.126Z,63.6
2017-07-04T08:10:37.974Z,63.7
2017-07-04T08:11:36.809Z,63.6
2017-07-04T08:12:36.416Z,64.3
2017-07-04T08:13:35.624Z,64.3
2017-07-04T08:14:35.098Z,63.3
2017-07-04T08:15:34.685Z,63.2
2017-07-04T08:16:33.907Z,63.8
2017-07-04T08:17:33.300Z,64.2
2017-07-04T08:18:32.407Z,64.4
2017-07-04T08:19:31.621Z,63.6
2017-07-04T08:20:30.857Z,63.6
2017-07-04T08:21:30.590Z,63.8
2017-07-04T08:22:29.806Z,64.3
2017-07-04T08:23:29.154Z,64.3
2017-07-04T08:24:28.385Z,64.8
2017-07-04T08:25:27.848Z,64.8
2017-07-04T08:26:27.192Z,65.3
2017-07-04T08:27:26.411Z,65.6
2017-07-04T08:28:25.630Z,65.8
2017-07-04T08:29:25.477Z,65.7
2017-07-04T08:31:24.215Z,65.9
2017-07-04T08:32:23.306Z,65.9
2017-07-04T08:33:22.903Z,66.3
2017-07-04T08:35:21.260Z,66.6
2017-07-04T08:36:20.484Z,66.7
2017-07-04T08:37:19.953Z,66.6
2017-07-04T08:38:19.429Z,67.2
2017-07-04T08:39:18.528Z,66.8
2017-07-04T08:40:18.122Z,66.8
2017-07-04T08:41:17.288Z,66.8
2017-07-04T08:42:16.508Z,66.9
2017-07-04T08:43:16.113Z,67.1
2017-07-04T08:44:15.459Z,66.8
2017-07-04T08:45:14.811Z,66.9
2017-07-04T08:46:14.029Z,66.8
2017-07-04T08:47:13.255Z,67.1
2017-07-04T08:48:12.993Z,66.8
2017-07-04T08:49:11.974Z,67.1
2017-07-04T08:50:11.644Z,67.1
2017-07-04T08:51:10.626Z,67.3
2017-07-04T08:52:10.480Z,66.7
2017-07-04T08:53:09.827Z,67
2017-07-04T08:54:09.054Z,65.8
2017-07-04T08:55:08.217Z,65.3
2017-07-04T08:56:07.574Z,65.4
2017-07-04T08:57:06.795Z,65.9
2017-07-04T08:58:06.395Z,65.5
2017-07-04T08:59:05.618Z,65.4
2017-07-04T09:00:04.723Z,65.5
2017-07-04T09:01:04.450Z,65.7
2017-07-04T09:02:03.665Z,66.5
2017-07-04T09:03:03.005Z,66
2017-07-04T09:04:02.097Z,65.7
2017-07-04T09:05:01.700Z,65.7
2017-07-04T09:06:01.174Z,66.2
2017-07-04T09:07:00.288Z,65.8
2017-07-04T09:07:59.881Z,66.2
2017-07-04T09:08:58.860Z,65.7
2017-07-04T09:09:58.590Z,65.7
2017-07-04T09:10:57.924Z,65
2017-07-04T09:11:57.281Z,65
2017-07-04T09:12:56.366Z,64.5
2017-07-04T09:13:55.713Z,64.5
2017-07-04T09:14:55.437Z,65
2017-07-04T09:15:54.658Z,65.1
2017-07-04T09:16:54.008Z,65.2
2017-07-04T09:17:53.241Z,65.1
2017-07-04T09:18:52.717Z,65.3
2017-07-04T09:19:51.941Z,65.8
2017-07-04T09:20:51.169Z,65.8
2017-07-04T09:21:50.518Z,65.3
2017-07-04T09:22:50.123Z,65
2017-07-04T09:23:49.233Z,64.9
2017-07-04T09:24:48.706Z,64.7
2017-07-04T09:26:47.713Z,65.3
2017-07-04T09:28:46.213Z,64.4
2017-07-04T09:29:45.441Z,64.1
2017-07-04T09:31:44.559Z,64.2
2017-07-04T09:32:43.790Z,64.5
2017-07-04T09:33:43.002Z,64.8
2017-07-04T09:34:42.596Z,65.1
2017-07-04T09:35:41.688Z,64.8
2017-07-04T09:36:41.047Z,64.7
2017-07-04T09:37:40.222Z,64.9
2017-07-04T09:38:39.701Z,64.8
2017-07-04T09:39:38.925Z,64.4
2017-07-04T09:40:38.593Z,64.6
2017-07-04T09:41:37.821Z,64.1
2017-07-04T09:42:37.044Z,63.4
2017-07-04T09:43:36.526Z,63.9
2017-07-04T09:44:35.628Z,62.8
2017-07-04T09:45:35.357Z,63.5
2017-07-04T09:46:34.585Z,62.5
2017-07-04T09:47:33.948Z,62
2017-07-04T09:48:33.416Z,62.7
2017-07-04T09:49:32.501Z,62.4
2017-07-04T09:50:32.298Z,62.4
2017-07-04T09:51:31.526Z,62.5
2017-07-04T09:52:31.132Z,62.2
2017-07-04T09:53:30.350Z,61.6
2017-07-04T09:54:29.703Z,61.1
2017-07-04T09:55:28.673Z,61.5
2017-07-04T09:56:28.352Z,61.6
2017-07-04T09:57:27.958Z,62.7
2017-07-04T09:59:26.074Z,62
2017-07-04T10:00:25.818Z,62.2
2017-07-04T10:01:24.915Z,61.2
2017-07-04T10:02:24.522Z,59.9
2017-07-04T10:03:23.751Z,59.6
2017-07-04T10:04:22.973Z,58.9
2017-07-04T10:05:22.574Z,58.5
2017-07-04T10:06:21.796Z,58.4
2017-07-04T10:07:21.017Z,58.1
2017-07-04T10:08:20.866Z,58.5
2017-07-04T10:09:20.096Z,58.1
2017-07-04T10:09:50.257Z,58.1
2017-07-04T10:10:20.790Z,58.6
2017-07-04T10:11:18.765Z,58.8
2017-07-04T10:12:18.497Z,59.3
2017-07-04T10:13:17.841Z,58.9
2017-07-04T10:14:17.183Z,57.1
2017-07-04T10:15:16.407Z,56.2
2017-07-04T10:16:15.816Z,56.1
2017-07-04T10:17:15.292Z,56.4
2017-07-04T10:18:14.504Z,56.3
2017-07-04T10:19:13.853Z,56.3
2017-07-04T10:20:13.458Z,56.7
2017-07-04T10:21:12.723Z,56.9
2017-07-04T10:22:12.774Z,56.9
2017-07-04T10:23:11.367Z,57.3
2017-07-04T10:24:10.722Z,57.3
2017-07-04T10:25:09.947Z,57.5
2017-07-04T10:26:09.553Z,57.5
2017-07-04T10:27:09.037Z,57.7
2017-07-04T10:28:08.136Z,57.8
2017-07-04T10:29:07.823Z,57.6
2017-07-04T10:30:07.298Z,57.4
2017-07-04T10:31:06.139Z,57.2
2017-07-04T10:32:05.604Z,57.5
2017-07-04T10:33:05.191Z,57.6
2017-07-04T10:34:04.533Z,57
2017-07-04T10:35:03.879Z,56.6
2017-07-04T10:36:03.348Z,56.4
2017-07-04T10:37:02.567Z,56.6
2017-07-04T10:38:02.288Z,56.9
2017-07-04T10:39:01.642Z,57
2017-07-04T10:40:00.734Z,57.3
2017-07-04T10:41:00.079Z,57.4
2017-07-04T10:41:59.560Z,57.5
2017-07-04T10:42:58.972Z,57.4
2017-07-04T10:43:58.191Z,57.3
2017-07-04T10:45:57.429Z,56.9
2017-07-04T10:46:56.646Z,56.8
2017-07-04T10:47:56.125Z,56.7
2017-07-04T10:48:55.288Z,56.4
2017-07-04T10:49:54.512Z,56.8
2017-07-04T10:51:53.753Z,56.8
2017-07-04T10:52:53.094Z,56.3
2017-07-04T10:53:52.211Z,56
2017-07-04T10:54:51.571Z,56.8
2017-07-04T10:55:50.922Z,55.7
2017-07-04T10:56:50.256Z,55.7
2017-07-04T10:57:49.719Z,55.4
2017-07-04T10:58:49.450Z,55.1
2017-07-04T10:59:48.675Z,55
2017-07-04T11:00:48.020Z,55
2017-07-04T11:01:47.367Z,55
2017-07-04T11:02:17.771Z,55
2017-07-04T11:02:48.179Z,54.9
2017-07-04T11:03:18.472Z,54.9
2017-07-04T11:03:49.121Z,55.2
2017-07-04T11:04:19.663Z,55.2
2017-07-04T11:04:50.073Z,55.6
2017-07-04T11:05:20.181Z,55.6
2017-07-04T11:06:44.691Z,55.6
2017-07-04T11:07:44.163Z,56
2017-07-04T11:08:43.382Z,55.7
2017-07-04T11:09:42.863Z,56.2
2017-07-04T11:10:42.346Z,56
2017-07-04T11:11:41.447Z,55.2
2017-07-04T11:12:41.053Z,55.5
2017-07-04T11:14:40.048Z,55.9
2017-07-04T11:15:39.277Z,56
2017-07-04T11:16:38.494Z,53.7
2017-07-04T11:17:37.859Z,53.9
2017-07-04T11:18:37.337Z,54
2017-07-04T11:19:36.681Z,54.7
2017-07-04T11:20:36.524Z,54.8
2017-07-04T11:21:35.746Z,55.3
2017-07-04T11:22:35.176Z,55.3
2017-07-04T11:23:34.407Z,55.8
2017-07-04T11:24:34.152Z,55.2
2017-07-04T11:25:33.505Z,54.5
2017-07-04T11:26:32.727Z,54.1
2017-07-04T11:27:32.326Z,52.7
2017-07-04T11:28:31.609Z,51.9
2017-07-04T11:29:31.396Z,51.5
2017-07-04T11:30:30.377Z,52.2
2017-07-04T11:31:29.862Z,52.3
2017-07-04T11:32:29.130Z,52.4
2017-07-04T11:33:28.723Z,52.5
2017-07-04T11:34:28.013Z,53.1
2017-07-04T11:35:27.494Z,53.4
2017-07-04T11:35:58.146Z,53.4
2017-07-04T11:36:28.550Z,54
2017-07-04T11:37:26.639Z,53.9
2017-07-04T11:38:25.914Z,54.3
2017-07-04T11:40:24.781Z,55.1
2017-07-04T11:41:24.002Z,54.9
2017-07-04T11:42:23.351Z,54.5
2017-07-04T11:43:23.084Z,54.7
2017-07-04T11:44:22.433Z,54.7
2017-07-04T11:45:22.098Z,54.7
2017-07-04T11:46:20.929Z,54.6
2017-07-04T11:47:20.650Z,54.5
2017-07-04T11:48:19.884Z,54.6
2017-07-04T11:49:19.225Z,54.7
2017-07-04T11:50:18.584Z,55.1
2017-07-04T11:51:18.195Z,54.6
2017-07-04T11:52:17.297Z,54
2017-07-04T11:53:16.835Z,53.6
2017-07-04T11:54:16.565Z,53.9
2017-07-04T11:55:16.068Z,53.5
2017-07-04T11:56:15.154Z,53.7
2017-07-04T11:57:14.889Z,54.2
2017-07-04T11:58:13.942Z,54.3
2017-07-04T11:59:13.426Z,54.3
2017-07-04T12:00:12.646Z,54.6
2017-07-04T12:02:11.635Z,55.7
2017-07-04T12:03:11.355Z,55.1
2017-07-04T12:04:10.723Z,54
2017-07-04T12:05:10.189Z,53.6
2017-07-04T12:06:09.282Z,53.4
2017-07-04T12:07:08.876Z,53.8
2017-07-04T12:08:08.467Z,54.4
2017-07-04T12:09:07.687Z,53.9
2017-07-04T12:10:07.165Z,53.7
2017-07-04T12:11:06.765Z,54.6
2017-07-04T12:12:06.243Z,56
2017-07-04T12:13:05.475Z,55.7
2017-07-04T12:14:04.839Z,55
2017-07-04T12:15:04.571Z,54.8
2017-07-04T12:17:03.190Z,54.2
2017-07-04T12:18:02.670Z,53.8
2017-07-04T12:19:01.885Z,53.3
2017-07-04T12:20:01.239Z,52.8
2017-07-04T12:21:00.842Z,53.5
2017-07-04T12:22:00.071Z,53.3
2017-07-04T12:22:59.787Z,52.9
2017-07-04T12:23:59.263Z,53
2017-07-04T12:24:58.368Z,52.3
2017-07-04T12:25:57.974Z,51.7
2017-07-04T12:26:57.643Z,52.3
2017-07-04T12:27:57.328Z,53
2017-07-04T12:28:56.054Z,53
2017-07-04T12:29:55.787Z,52.7
2017-07-04T12:30:54.881Z,52.7
2017-07-04T12:31:25.276Z,52.7
2017-07-04T12:31:55.695Z,52.8
2017-07-04T12:32:25.862Z,52.8
2017-07-04T12:32:56.402Z,52.5
2017-07-04T12:33:26.556Z,52.5
2017-07-04T12:34:52.825Z,53.3
2017-07-04T12:35:52.185Z,52.3
2017-07-04T12:36:52.206Z,52.3
2017-07-04T12:37:51.060Z,51.7
2017-07-04T12:38:50.789Z,52
2017-07-04T12:39:50.144Z,51.6
2017-07-04T12:40:49.361Z,50.8
2017-07-04T12:41:48.963Z,50.8
2017-07-04T12:42:48.198Z,52.2
2017-07-04T12:43:47.921Z,50.9
2017-07-04T12:44:47.527Z,50.4
2017-07-04T12:45:46.755Z,51.6
2017-07-04T12:46:46.092Z,52.2
2017-07-04T12:47:45.559Z,53.8
2017-07-04T12:48:45.064Z,52.3
2017-07-04T12:49:44.787Z,52.3
2017-07-04T12:50:44.204Z,52.2
2017-07-04T12:51:43.557Z,51.6
2017-07-04T12:52:42.790Z,51.8
2017-07-04T12:53:42.522Z,50.6
2017-07-04T12:54:41.750Z,50.2
2017-07-04T12:56:40.864Z,49
2017-07-04T12:57:39.954Z,49.6
2017-07-04T12:58:39.580Z,48.7
2017-07-04T12:59:39.180Z,48.8
2017-07-04T13:00:38.657Z,48.2
2017-07-04T13:01:38.006Z,48.3
2017-07-04T13:03:36.683Z,49.2
2017-07-04T13:04:36.412Z,50
2017-07-04T13:05:35.875Z,50.5
2017-07-04T13:06:35.096Z,51
2017-07-04T13:07:34.573Z,51.4
2017-07-04T13:08:34.164Z,51.5
2017-07-04T13:09:33.896Z,51.9
2017-07-04T13:10:32.739Z,51.9
2017-07-04T13:11:32.599Z,51.2
2017-07-04T13:12:31.832Z,51.6
2017-07-04T13:13:02.358Z,51.6
2017-07-04T13:13:33.139Z,51.1
2017-07-04T13:14:03.292Z,51.1
2017-07-04T13:14:33.836Z,50
2017-07-04T13:15:04.497Z,50